6-13-2013 Michigan

Kitesurfing or snowkiting...if the wind's blowin'...where you goin?

Moderators: Misfit, adseguy, Pier, Bob, kris, IVO, skysurfr, West

6-13-2013 Michigan

Postby mrgrey » Wed Jun 12, 2013 8:10 am

Looking like a good day to play hooky from the jay oh bee and sample sum pure Michigan... Anyone else plan on ridin the NNW side shore action along the eastern banks? South Haven to St. Joe is lookin nice...
mrgrey
Resident Windfreak
 
Posts: 256
Joined: Sun Oct 09, 2011 10:08 am

Re: 6-13-2013 Michigan

Postby jkjaeschke » Thu Jun 13, 2013 6:47 am

Thoughts this morning? Debating if I should head north or south.
James
jkjaeschke
Resident Windfreak
 
Posts: 222
Joined: Mon May 05, 2003 2:26 pm
Location: Chicago

Re: 6-13-2013 Michigan

Postby skysurfr » Thu Jun 13, 2013 8:06 am

It' doesnt really matter. Looks like the wind will be more North than North East...making it a bit more "side shore " than "side-on" on some beaches.





KMDW 131251Z 01011KT 10SM FEW010 SCT014 18/12 A2985 RMK AO2 SLP102 T01780122 $
KMDW 131120Z 1312/1412 01013G18KT P6SM SCT040
FM131800 03013G19KT P6SM SCT040
FM140100 02009KT P6SM SKC
FM140600 35005KT P6SM SKC
KGYY 131245Z 34010KT 15SM SCT075 17/13 A2985
KGYY 131120Z 1312/1412 35013G20KT P6SM BKN020
FM131400 36013G20KT P6SM SCT040
FM131700 01013G21KT P6SM SCT040
FM140100 02009KT P6SM SKC
FM140600 35005KT P6SM SKC
KORD 131251Z 02008KT 10SM FEW017 18/13 A2986 RMK AO2 SLP107 T01830133 $
KORD 131120Z 1312/1418 01013G19KT P6SM SCT040
FM131800 03013G19KT P6SM SCT040
FM140100 02009KT P6SM SKC
FM140600 35005KT P6SM SKC
FM141400 04007KT P6SM SCT200
KUGN 131252Z COR 36010G20KT 10SM CLR 18/09 A2988 RMK AO2 SLP112 T01780094
KMKE 131252Z 02010G17KT 10SM FEW045 SCT250 18/11 A2989 RMK AO2 SLP119 T01830106
KMKE 131120Z 1312/1418 01012G21KT P6SM BKN250
FM131400 01015G23KT P6SM FEW035
FM140200 02007KT P6SM SKC
Mike

2007- Naish Thorn, Torch 16/12, 2008 10M Alliance. '07 Naish Thorn 144 Cape Doctor. Naish Midwest Team. GoPro Cameras! Red Helmet and Fashionable Football Shirt. :-)
User avatar
skysurfr
Board Beotch
 
Posts: 2347
Joined: Mon Sep 20, 2004 10:23 am
Location: SW Burbs of Chicago

Re: 6-13-2013 Michigan

Postby jkjaeschke » Thu Jun 13, 2013 8:30 am

I'm thinking heading to Zion unless anyone is headed to casino.
James
jkjaeschke
Resident Windfreak
 
Posts: 222
Joined: Mon May 05, 2003 2:26 pm
Location: Chicago


Return to Where to Ride Today

Who is online

Users browsing this forum: No registered users and 3 guests